createdAt,value
2022-08-08T00:00:59.738Z,2.90
2022-08-08T00:02:57.849Z,3.15
2022-08-08T00:05:43.527Z,2.55
2022-08-08T00:08:32.006Z,3.52
2022-08-08T00:11:26.468Z,3.33
2022-08-08T00:14:48.466Z,3.75
2022-08-08T00:17:23.587Z,3.70
2022-08-08T00:20:07.483Z,3.60
2022-08-08T00:22:52.275Z,3.60
2022-08-08T00:25:44.925Z,3.55
2022-08-08T00:28:00.774Z,3.50
2022-08-08T00:30:36.474Z,3.87
2022-08-08T00:33:14.933Z,3.52
2022-08-08T00:36:14.938Z,3.70
2022-08-08T00:41:07.414Z,3.47
2022-08-08T00:42:33.309Z,3.92
2022-08-08T00:45:38.111Z,3.62
2022-08-08T00:48:29.874Z,3.90
2022-08-08T00:51:10.547Z,3.98
2022-08-08T00:54:19.730Z,4.12
2022-08-08T00:57:23.799Z,3.80
2022-08-08T01:00:10.508Z,3.80
2022-08-08T01:04:02.028Z,3.60
2022-08-08T01:06:40.874Z,4.12
2022-08-08T01:09:48.722Z,4.08
2022-08-08T01:12:36.748Z,3.90
2022-08-08T01:15:54.225Z,3.90
2022-08-08T01:18:53.258Z,3.85
2022-08-08T01:22:13.587Z,3.75
2022-08-08T01:24:41.159Z,3.50
2022-08-08T01:28:06.493Z,3.45
2022-08-08T01:32:12.773Z,3.45
2022-08-08T01:34:21.629Z,3.60
2022-08-08T01:37:21.667Z,3.58
2022-08-08T01:40:14.839Z,3.62
2022-08-08T01:42:55.986Z,3.60
2022-08-08T01:45:54.339Z,3.42
2022-08-08T01:48:58.519Z,3.27
2022-08-08T01:52:49.733Z,3.12
2022-08-08T01:55:26.070Z,3.55
2022-08-08T01:58:38.634Z,3.27
2022-08-08T02:01:18.153Z,3.27
2022-08-08T02:04:21.422Z,3.20
2022-08-08T02:07:27.439Z,3.20
2022-08-08T02:10:11.934Z,3.42
2022-08-08T02:12:58.154Z,3.12
2022-08-08T02:16:04.931Z,3.35
2022-08-08T02:18:43.625Z,3.47
2022-08-08T02:21:37.705Z,3.47
2022-08-08T02:27:21.670Z,4.25
2022-08-08T02:30:08.275Z,4.42
2022-08-08T02:32:49.415Z,4.30
2022-08-08T02:36:04.546Z,3.40
2022-08-08T02:38:34.592Z,3.40
2022-08-08T02:42:04.487Z,3.70
2022-08-08T02:45:18.671Z,3.65
2022-08-08T02:48:11.479Z,3.45
2022-08-08T02:51:03.353Z,3.30
2022-08-08T02:54:20.972Z,3.62
2022-08-08T02:57:18.441Z,3.55
2022-08-08T03:00:33.642Z,3.55
2022-08-08T03:05:01.009Z,3.70
2022-08-08T03:06:34.896Z,3.83
2022-08-08T03:09:51.567Z,3.80
2022-08-08T03:12:57.061Z,3.55
2022-08-08T03:16:05.157Z,3.70
2022-08-08T03:18:58.086Z,3.70
2022-08-08T03:21:54.737Z,3.87
2022-08-08T03:24:01.883Z,3.90
2022-08-08T03:26:42.005Z,4.03
2022-08-08T03:29:17.151Z,4.05
2022-08-08T03:32:06.659Z,4.20
2022-08-08T03:34:30.234Z,4.78
2022-08-08T03:37:01.064Z,4.80
2022-08-08T03:39:33.175Z,4.62
2022-08-08T03:42:11.743Z,4.80
2022-08-08T03:44:38.772Z,4.45
2022-08-08T03:47:19.561Z,4.97
2022-08-08T03:49:57.357Z,4.95
2022-08-08T03:52:14.040Z,5.00
2022-08-08T03:55:01.667Z,4.42
2022-08-08T03:58:33.653Z,4.78
2022-08-08T03:59:57.362Z,4.83
2022-08-08T04:02:36.908Z,5.40
2022-08-08T04:04:52.932Z,5.03
2022-08-08T04:07:23.231Z,4.95
2022-08-08T04:10:03.183Z,5.05
2022-08-08T04:12:31.161Z,5.20
2022-08-08T04:15:03.207Z,5.17
2022-08-08T04:17:46.361Z,5.00
2022-08-08T04:20:05.886Z,4.95
2022-08-08T04:22:37.203Z,4.80
2022-08-08T04:25:09.258Z,5.20
2022-08-08T04:28:01.499Z,5.03
2022-08-08T04:30:17.997Z,4.62
2022-08-08T04:32:47.841Z,7.65
2022-08-08T04:35:16.383Z,5.35
2022-08-08T04:37:47.037Z,5.67
2022-08-08T04:40:23.755Z,4.90
2022-08-08T04:42:57.975Z,5.05
2022-08-08T04:45:29.033Z,4.75
2022-08-08T04:48:00.701Z,5.25
2022-08-08T04:50:38.325Z,5.25
2022-08-08T04:53:04.996Z,5.30
2022-08-08T04:55:47.840Z,5.47
2022-08-08T04:58:10.882Z,5.00
2022-08-08T05:00:38.498Z,4.80
2022-08-08T05:03:08.492Z,5.17
2022-08-08T05:05:45.461Z,5.08
2022-08-08T05:08:13.303Z,4.80
2022-08-08T05:10:42.742Z,4.62
2022-08-08T05:13:17.902Z,5.30
2022-08-08T05:16:53.747Z,4.60
2022-08-08T05:18:17.746Z,5.03
2022-08-08T05:20:49.929Z,5.30
2022-08-08T05:23:19.388Z,4.90
2022-08-08T05:25:51.562Z,4.70
2022-08-08T05:28:56.218Z,5.17
2022-08-08T05:30:51.716Z,4.30
2022-08-08T05:33:22.625Z,5.12
2022-08-08T05:35:54.382Z,5.28
2022-08-08T05:38:31.691Z,6.33
2022-08-08T05:40:58.326Z,5.40
2022-08-08T05:43:39.895Z,4.95
2022-08-08T05:46:08.078Z,6.40
2022-08-08T05:48:37.931Z,4.75
2022-08-08T05:51:12.833Z,4.62
2022-08-08T05:54:26.148Z,4.40
2022-08-08T05:56:15.200Z,6.45
2022-08-08T05:58:57.192Z,5.33
2022-08-08T06:01:55.590Z,5.72
2022-08-08T06:03:53.534Z,5.65
2022-08-08T06:06:19.948Z,5.42
2022-08-08T06:08:54.929Z,5.60
2022-08-08T06:11:28.235Z,7.05
2022-08-08T06:13:58.226Z,5.62
2022-08-08T06:16:30.249Z,6.25
2022-08-08T06:19:07.651Z,5.83
2022-08-08T06:21:48.897Z,6.58
2022-08-08T06:24:13.811Z,6.25
2022-08-08T06:26:52.331Z,7.08
2022-08-08T06:29:59.563Z,6.50
2022-08-08T06:32:10.662Z,7.37
2022-08-08T06:34:39.368Z,8.30
2022-08-08T06:37:24.965Z,6.83
2022-08-08T06:39:56.201Z,7.08
2022-08-08T06:42:16.571Z,6.80
2022-08-08T06:44:49.369Z,7.00
2022-08-08T06:47:22.016Z,7.15
2022-08-08T06:49:55.354Z,7.12
2022-08-08T06:52:23.130Z,6.50
2022-08-08T06:54:55.642Z,6.22
2022-08-08T06:57:29.462Z,6.67
2022-08-08T07:03:52.088Z,6.42
2022-08-08T07:06:23.893Z,7.15
2022-08-08T07:09:01.217Z,7.08
2022-08-08T07:11:46.264Z,7.35
2022-08-08T07:14:04.492Z,6.83
2022-08-08T07:16:55.739Z,6.72
2022-08-08T07:19:44.909Z,6.22
2022-08-08T07:22:22.410Z,6.80
2022-08-08T07:25:02.889Z,7.00
2022-08-08T07:27:47.345Z,7.28
2022-08-08T07:30:25.873Z,6.50
2022-08-08T07:32:49.717Z,6.15
2022-08-08T07:35:19.850Z,6.35
2022-08-08T07:38:04.330Z,7.15
2022-08-08T07:40:29.547Z,7.05
2022-08-08T07:42:59.501Z,6.28
2022-08-08T07:45:34.769Z,4.80
2022-08-08T07:48:01.502Z,4.70
2022-08-08T07:50:34.116Z,5.30
2022-08-08T07:53:52.797Z,5.90
2022-08-08T07:55:53.266Z,5.78
2022-08-08T07:58:43.652Z,4.78
2022-08-08T08:01:17.303Z,5.78
2022-08-08T08:03:55.265Z,5.45
2022-08-08T08:06:27.750Z,4.92
2022-08-08T08:09:24.515Z,4.70
2022-08-08T08:11:56.173Z,4.15
2022-08-08T08:14:45.921Z,5.72
2022-08-08T08:17:18.547Z,4.50
2022-08-08T08:19:50.428Z,4.42
2022-08-08T08:22:31.549Z,3.92
2022-08-08T08:24:55.359Z,4.37
2022-08-08T08:27:30.151Z,4.20
2022-08-08T08:29:59.388Z,4.42
2022-08-08T08:32:36.206Z,5.17
2022-08-08T08:35:09.795Z,6.47
2022-08-08T08:38:13.301Z,11.18
2022-08-08T08:40:13.104Z,6.12
2022-08-08T08:42:43.465Z,5.85
2022-08-08T08:45:22.971Z,6.20
2022-08-08T08:47:49.195Z,6.20
2022-08-08T08:50:31.733Z,5.28
2022-08-08T08:53:00.118Z,4.90
2022-08-08T08:55:25.664Z,5.60
2022-08-08T08:57:57.565Z,5.10
2022-08-08T09:00:39.776Z,5.60
2022-08-08T09:03:00.465Z,5.67
2022-08-08T09:05:54.382Z,5.20
2022-08-08T09:08:13.152Z,5.53
2022-08-08T09:10:38.046Z,5.03
2022-08-08T09:13:08.036Z,4.60
2022-08-08T09:15:42.351Z,6.47
2022-08-08T09:18:12.980Z,5.58
2022-08-08T09:21:56.924Z,5.40
2022-08-08T09:23:17.524Z,5.47
2022-08-08T09:26:02.154Z,4.30
2022-08-08T09:28:37.462Z,4.58
2022-08-08T09:31:12.321Z,5.00
2022-08-08T09:34:06.268Z,5.80
2022-08-08T09:36:15.089Z,5.15
2022-08-08T09:38:56.212Z,6.10
2022-08-08T09:42:15.180Z,6.15
2022-08-08T09:44:29.826Z,6.35
2022-08-08T09:46:57.749Z,6.67
2022-08-08T09:49:42.590Z,6.33
2022-08-08T09:52:06.411Z,5.87
2022-08-08T09:54:37.032Z,6.15
2022-08-08T09:57:04.528Z,6.10
2022-08-08T10:00:01.794Z,7.10
2022-08-08T10:02:14.609Z,7.05
2022-08-08T10:04:42.039Z,6.97
2022-08-08T10:07:25.817Z,6.62
2022-08-08T10:10:00.016Z,6.85
2022-08-08T10:12:53.307Z,7.62
2022-08-08T10:15:17.587Z,7.37
2022-08-08T10:18:07.458Z,7.40
2022-08-08T10:20:18.136Z,6.37
2022-08-08T10:23:00.849Z,6.78
2022-08-08T10:25:36.315Z,6.95
2022-08-08T10:28:08.793Z,6.70
2022-08-08T10:31:00.102Z,6.35
2022-08-08T10:33:12.347Z,6.67
2022-08-08T10:36:20.733Z,6.72
2022-08-08T10:38:18.123Z,6.62
2022-08-08T10:40:53.342Z,6.78
2022-08-08T10:43:23.430Z,6.65
2022-08-08T10:45:55.581Z,6.35
2022-08-08T10:48:25.297Z,14.73
2022-08-08T10:50:58.904Z,6.70
2022-08-08T10:53:56.842Z,6.33
2022-08-08T10:56:10.174Z,7.00
2022-08-08T10:58:47.387Z,6.17
2022-08-08T11:01:13.118Z,6.53
2022-08-08T11:04:00.530Z,6.62
2022-08-08T11:06:17.297Z,5.55
2022-08-08T11:08:53.116Z,6.40
2022-08-08T11:11:31.672Z,7.50
2022-08-08T11:13:52.122Z,6.45
2022-08-08T11:16:32.165Z,7.35
2022-08-08T11:18:56.217Z,6.00
2022-08-08T11:21:35.058Z,5.97
2022-08-08T11:23:59.977Z,6.58
2022-08-08T11:26:31.825Z,6.08
2022-08-08T11:29:04.462Z,6.47
2022-08-08T11:31:46.942Z,6.30
2022-08-08T11:34:31.622Z,6.53
2022-08-08T11:36:44.836Z,6.25
2022-08-08T11:39:16.190Z,6.47
2022-08-08T11:41:48.041Z,6.35
2022-08-08T11:44:28.762Z,6.30
2022-08-08T11:46:54.389Z,5.55
2022-08-08T11:49:23.078Z,5.87
2022-08-08T11:51:54.228Z,6.00
2022-08-08T11:54:38.118Z,5.95
2022-08-08T11:57:27.846Z,5.92
2022-08-08T12:00:05.797Z,6.50
2022-08-08T12:02:51.929Z,5.58
2022-08-08T12:05:38.842Z,5.75
2022-08-08T12:08:10.443Z,6.08
2022-08-08T12:10:51.262Z,6.33
2022-08-08T12:13:37.834Z,6.17
2022-08-08T12:16:12.474Z,6.10
2022-08-08T12:18:52.665Z,6.30
2022-08-08T12:22:00.341Z,5.92
2022-08-08T12:24:14.063Z,5.92
2022-08-08T12:26:50.032Z,5.97
2022-08-08T12:29:40.456Z,6.17
2022-08-08T12:32:19.566Z,5.92
2022-08-08T12:34:58.886Z,5.83
2022-08-08T12:37:41.540Z,5.83
2022-08-08T12:40:06.935Z,6.62
2022-08-08T12:42:47.730Z,5.78
2022-08-08T12:45:53.508Z,6.28
2022-08-08T12:48:04.838Z,5.92
2022-08-08T12:50:22.084Z,5.70
2022-08-08T12:52:56.615Z,5.47
2022-08-08T12:55:35.470Z,6.33
2022-08-08T12:58:06.899Z,5.58
2022-08-08T13:00:39.323Z,5.50
2022-08-08T13:03:10.766Z,6.15
2022-08-08T13:06:03.126Z,5.45
2022-08-08T13:08:40.619Z,5.40
2022-08-08T13:11:25.053Z,5.25
2022-08-08T13:14:09.443Z,5.30
2022-08-08T13:16:39.698Z,5.72
2022-08-08T13:19:14.223Z,5.50
2022-08-08T13:21:53.127Z,6.30
2022-08-08T13:24:23.621Z,5.15
2022-08-08T13:26:54.912Z,5.62
2022-08-08T13:29:23.015Z,6.05
2022-08-08T13:31:53.110Z,5.15
2022-08-08T13:34:33.315Z,5.42
2022-08-08T13:36:58.061Z,5.33
2022-08-08T13:39:28.143Z,5.42
2022-08-08T13:42:01.341Z,5.12
2022-08-08T13:44:29.886Z,5.53
2022-08-08T13:47:05.055Z,5.83
2022-08-08T13:50:35.333Z,5.12
2022-08-08T13:52:08.382Z,5.15
2022-08-08T13:54:44.399Z,4.87
2022-08-08T13:57:12.518Z,4.75
2022-08-08T13:59:48.668Z,6.10
2022-08-08T14:02:33.239Z,5.42
2022-08-08T14:05:20.620Z,4.50
2022-08-08T14:07:47.221Z,5.15
2022-08-08T14:10:32.507Z,4.47
2022-08-08T14:12:51.726Z,4.60
2022-08-08T14:15:31.233Z,4.62
2022-08-08T14:18:35.535Z,4.50
2022-08-08T14:20:56.345Z,4.28
2022-08-08T14:23:20.687Z,4.72
2022-08-08T14:25:53.943Z,4.22
2022-08-08T14:28:29.093Z,4.40
2022-08-08T14:30:55.160Z,4.95
2022-08-08T14:33:34.220Z,4.47
2022-08-08T14:36:09.591Z,4.97
2022-08-08T14:38:51.933Z,4.83
2022-08-08T14:41:18.629Z,4.35
2022-08-08T14:44:10.558Z,4.35
2022-08-08T14:46:32.635Z,4.33
2022-08-08T14:49:09.428Z,4.35
2022-08-08T14:51:52.149Z,4.00
2022-08-08T14:54:12.308Z,4.47
2022-08-08T14:56:41.093Z,4.65
2022-08-08T14:59:50.814Z,26.42
2022-08-08T15:02:06.898Z,17.50
2022-08-08T15:04:37.723Z,5.12
2022-08-08T15:07:08.227Z,4.62
2022-08-08T15:09:38.965Z,3.83
2022-08-08T15:12:09.640Z,4.22
2022-08-08T15:14:39.873Z,4.20
2022-08-08T15:17:08.721Z,4.05
2022-08-08T15:19:39.137Z,4.22
2022-08-08T15:22:08.834Z,3.55
2022-08-08T15:24:39.794Z,4.17
2022-08-08T15:27:57.483Z,4.35
2022-08-08T15:29:39.651Z,4.00
2022-08-08T15:32:20.464Z,3.67
2022-08-08T15:34:41.036Z,4.15
2022-08-08T15:37:10.454Z,4.05
2022-08-08T15:39:41.373Z,3.90
2022-08-08T15:42:17.831Z,4.12
2022-08-08T15:44:42.206Z,4.03
2022-08-08T15:47:15.393Z,4.25
2022-08-08T15:49:44.301Z,4.05
2022-08-08T15:52:15.310Z,4.40
2022-08-08T15:54:46.266Z,3.80
2022-08-08T15:57:16.342Z,4.30
2022-08-08T16:00:06.847Z,4.20
2022-08-08T16:02:17.292Z,4.20
2022-08-08T16:04:47.302Z,4.17
2022-08-08T16:07:19.528Z,3.80
2022-08-08T16:13:02.488Z,3.77
2022-08-08T16:13:09.814Z,3.92
2022-08-08T16:14:54.515Z,3.80
2022-08-08T16:17:57.566Z,3.70
2022-08-08T16:20:00.714Z,3.87
2022-08-08T16:22:31.530Z,3.85
2022-08-08T16:25:05.931Z,3.52
2022-08-08T16:27:32.678Z,3.00
2022-08-08T16:30:13.779Z,3.33
2022-08-08T16:32:36.332Z,3.40
2022-08-08T16:35:06.600Z,3.47
2022-08-08T16:37:47.462Z,4.20
2022-08-08T16:40:34.234Z,3.80
2022-08-08T16:46:37.474Z,3.90
2022-08-08T16:48:37.006Z,3.87
2022-08-08T16:51:05.101Z,3.60
2022-08-08T16:55:06.021Z,3.70
2022-08-08T16:56:14.089Z,3.10
2022-08-08T16:58:43.356Z,3.08
2022-08-08T17:01:15.570Z,3.00
2022-08-08T17:03:58.549Z,3.22
2022-08-08T17:06:36.465Z,2.90
2022-08-08T17:08:48.729Z,2.90
2022-08-08T17:11:19.951Z,3.08
2022-08-08T17:14:00.821Z,3.25
2022-08-08T17:16:22.029Z,3.12
2022-08-08T17:18:51.973Z,3.40
2022-08-08T17:21:22.236Z,6.25
2022-08-08T17:24:00.332Z,3.70
2022-08-08T17:26:29.247Z,3.70
2022-08-08T17:29:03.853Z,5.85
2022-08-08T17:31:44.170Z,4.28
2022-08-08T17:34:49.303Z,3.70
2022-08-08T17:36:34.181Z,3.92
2022-08-08T17:39:45.544Z,3.70
2022-08-08T17:41:41.057Z,4.10
2022-08-08T17:44:11.007Z,3.90
2022-08-08T17:46:43.932Z,4.05
2022-08-08T17:49:23.917Z,4.20
2022-08-08T17:51:51.915Z,3.83
2022-08-08T17:54:26.147Z,4.20
2022-08-08T17:56:54.228Z,3.87
2022-08-08T17:59:30.615Z,4.05
2022-08-08T18:01:59.663Z,4.60
2022-08-08T18:04:32.741Z,4.05
2022-08-08T18:08:02.736Z,3.90
2022-08-08T18:09:39.057Z,3.62
2022-08-08T18:12:13.139Z,3.72
2022-08-08T18:14:41.202Z,4.08
2022-08-08T18:17:17.573Z,3.70
2022-08-08T18:19:45.730Z,3.95
2022-08-08T18:22:51.145Z,3.92
2022-08-08T18:24:48.623Z,3.92
2022-08-08T18:27:17.407Z,4.40
2022-08-08T18:29:47.002Z,4.20
2022-08-08T18:32:17.927Z,4.50
2022-08-08T18:34:50.321Z,4.33
2022-08-08T18:37:34.054Z,4.08
2022-08-08T18:39:51.491Z,4.45
2022-08-08T18:42:20.561Z,4.50
2022-08-08T18:44:54.937Z,3.95
2022-08-08T18:47:26.121Z,4.33
2022-08-08T18:50:00.399Z,4.95
2022-08-08T18:52:33.328Z,4.40
2022-08-08T18:55:10.557Z,4.60
2022-08-08T18:57:36.783Z,4.67
2022-08-08T19:00:15.639Z,4.47
2022-08-08T19:02:48.333Z,4.33
2022-08-08T19:05:11.608Z,4.55
2022-08-08T19:07:41.523Z,4.58
2022-08-08T19:10:16.236Z,4.40
2022-08-08T19:12:53.287Z,4.62
2022-08-08T19:15:16.644Z,4.62
2022-08-08T19:18:32.921Z,4.55
2022-08-08T19:20:21.194Z,4.85
2022-08-08T19:22:52.081Z,4.75
2022-08-08T19:26:01.133Z,4.33
2022-08-08T19:27:57.478Z,4.78
2022-08-08T19:30:24.483Z,4.55
2022-08-08T19:32:59.075Z,4.22
2022-08-08T19:35:45.583Z,4.60
2022-08-08T19:38:00.681Z,4.65
2022-08-08T19:40:32.787Z,4.75
2022-08-08T19:43:02.606Z,4.47
2022-08-08T19:45:59.847Z,4.55
2022-08-08T19:48:05.792Z,4.67
2022-08-08T19:50:37.396Z,4.80
2022-08-08T19:53:46.960Z,5.10
2022-08-08T19:55:39.201Z,4.80
2022-08-08T19:58:11.090Z,4.90
2022-08-08T20:00:42.735Z,4.75
2022-08-08T20:04:01.811Z,5.08
2022-08-08T20:06:13.895Z,4.80
2022-08-08T20:08:29.289Z,4.62
2022-08-08T20:10:49.506Z,4.37
2022-08-08T20:14:32.922Z,4.65
2022-08-08T20:15:52.603Z,4.60
2022-08-08T20:18:24.448Z,4.80
2022-08-08T20:20:53.643Z,4.75
2022-08-08T20:23:23.906Z,4.65
2022-08-08T20:25:56.277Z,4.95
2022-08-08T20:28:32.702Z,4.35
2022-08-08T20:30:59.833Z,5.00
2022-08-08T20:33:28.985Z,5.12
2022-08-08T20:36:06.450Z,5.00
2022-08-08T20:38:32.922Z,4.85
2022-08-08T20:41:05.850Z,4.83
2022-08-08T20:43:43.918Z,5.10
2022-08-08T20:46:07.438Z,5.15
2022-08-08T20:48:38.899Z,5.12
2022-08-08T20:51:10.778Z,4.85
2022-08-08T20:53:59.888Z,4.85
2022-08-08T20:56:11.646Z,4.65
2022-08-08T20:58:47.665Z,5.20
2022-08-08T21:01:19.510Z,5.30
2022-08-08T21:03:55.535Z,4.97
2022-08-08T21:06:18.013Z,4.80
2022-08-08T21:08:49.506Z,5.30
2022-08-08T21:11:52.221Z,4.78
2022-08-08T21:13:53.456Z,4.80
2022-08-08T21:16:29.062Z,5.42
2022-08-08T21:18:58.689Z,5.10
2022-08-08T21:21:39.680Z,5.00
2022-08-08T21:24:03.861Z,4.67
2022-08-08T21:26:33.137Z,4.83
2022-08-08T21:29:02.743Z,4.37
2022-08-08T21:31:57.784Z,4.65
2022-08-08T21:34:03.305Z,4.90
2022-08-08T21:36:34.241Z,4.65
2022-08-08T21:39:04.439Z,4.72
2022-08-08T21:41:50.954Z,4.97
2022-08-08T21:44:05.818Z,4.45
2022-08-08T21:48:03.817Z,4.37
2022-08-08T21:49:08.013Z,4.75
2022-08-08T21:54:34.119Z,4.60
2022-08-08T21:54:34.917Z,4.70
2022-08-08T21:56:48.670Z,4.55
2022-08-08T21:59:21.063Z,4.78
2022-08-08T22:01:52.427Z,4.35
2022-08-08T22:04:21.776Z,5.15
2022-08-08T22:06:52.589Z,4.85
2022-08-08T22:09:26.785Z,4.83
2022-08-08T22:12:08.853Z,4.62
2022-08-08T22:14:28.926Z,4.85
2022-08-08T22:16:56.647Z,5.00
2022-08-08T22:19:29.268Z,4.62
2022-08-08T22:21:59.373Z,4.62
2022-08-08T22:24:30.959Z,4.33
2022-08-08T22:27:03.432Z,4.22
2022-08-08T22:29:59.719Z,4.00
2022-08-08T22:32:04.890Z,4.50
2022-08-08T22:34:39.818Z,4.45
2022-08-08T22:37:06.448Z,3.77
2022-08-08T22:39:45.700Z,3.60
2022-08-08T22:42:10.455Z,4.08
2022-08-08T22:44:40.050Z,4.33
2022-08-08T22:47:17.964Z,4.40
2022-08-08T22:49:44.402Z,3.87
2022-08-08T22:52:15.497Z,4.65
2022-08-08T22:54:58.995Z,3.98
2022-08-08T22:57:18.799Z,4.00
2022-08-08T22:59:59.484Z,4.55
2022-08-08T23:02:19.747Z,3.95
2022-08-08T23:04:57.767Z,3.92
2022-08-08T23:07:49.402Z,3.90
2022-08-08T23:10:00.398Z,4.10
2022-08-08T23:12:40.663Z,3.50
2022-08-08T23:15:11.225Z,4.03
2022-08-08T23:17:33.335Z,3.77
2022-08-08T23:20:07.192Z,3.98
2022-08-08T23:22:38.833Z,3.92
2022-08-08T23:25:10.139Z,3.35
2022-08-08T23:27:46.205Z,3.60
2022-08-08T23:30:12.863Z,3.65
2022-08-08T23:32:44.287Z,3.72
2022-08-08T23:35:17.234Z,3.80
2022-08-08T23:38:03.177Z,3.67
2022-08-08T23:40:21.923Z,3.60
2022-08-08T23:42:51.522Z,3.70
2022-08-08T23:49:00.669Z,3.50
2022-08-08T23:49:06.331Z,3.95
2022-08-08T23:50:29.901Z,3.95
2022-08-08T23:52:57.536Z,3.70
2022-08-08T23:55:27.042Z,3.45
2022-08-08T23:58:01.789Z,3.80
